createdAt,value
2023-03-06T00:01:50.760Z,22.17
2023-03-06T00:04:17.509Z,22.30
2023-03-06T00:06:44.144Z,25.73
2023-03-06T00:09:10.856Z,22.93
2023-03-06T00:11:37.525Z,26.23
2023-03-06T00:14:04.136Z,21.83
2023-03-06T00:16:31.364Z,23.93
2023-03-06T00:18:57.995Z,24.13
2023-03-06T00:21:24.644Z,27.33
2023-03-06T00:23:51.226Z,26.27
2023-03-06T00:26:17.853Z,27.60
2023-03-06T00:28:45.045Z,26.20
2023-03-06T00:31:11.834Z,23.80
2023-03-06T00:33:38.504Z,27.27
2023-03-06T00:36:05.893Z,27.27
2023-03-06T00:38:35.628Z,29.53
2023-03-06T00:41:12.153Z,28.27
2023-03-06T00:43:39.217Z,29.77
2023-03-06T00:46:08.089Z,27.57
2023-03-06T00:48:35.048Z,30.50
2023-03-06T00:51:01.746Z,29.37
2023-03-06T00:53:28.395Z,27.80
2023-03-06T00:55:55.254Z,30.83
2023-03-06T00:58:22.157Z,26.97
2023-03-06T01:00:48.795Z,29.77
2023-03-06T01:03:16.239Z,30.73
2023-03-06T01:05:42.894Z,29.43
2023-03-06T01:08:09.542Z,26.23
2023-03-06T01:10:39.976Z,27.70
2023-03-06T01:13:06.940Z,29.27
2023-03-06T01:15:33.714Z,31.13
2023-03-06T01:18:00.559Z,29.90
2023-03-06T01:20:27.556Z,28.60
2023-03-06T01:22:55.684Z,30.87
2023-03-06T01:25:23.582Z,29.37
2023-03-06T01:27:51.169Z,28.87
2023-03-06T01:30:17.806Z,31.17
2023-03-06T01:32:44.836Z,28.87
2023-03-06T01:35:12.143Z,28.53
2023-03-06T01:37:39.324Z,27.70
2023-03-06T01:40:07.424Z,27.10
2023-03-06T01:42:34.055Z,28.27
2023-03-06T01:45:06.969Z,29.30
2023-03-06T01:47:34.875Z,29.87
2023-03-06T01:50:03.891Z,27.93
2023-03-06T01:52:33.074Z,35.93
2023-03-06T01:55:02.369Z,30.67
2023-03-06T01:57:31.374Z,33.23
2023-03-06T02:00:04.573Z,29.17
2023-03-06T02:02:40.577Z,30.83
2023-03-06T02:05:08.434Z,30.27
2023-03-06T02:07:36.276Z,32.13
2023-03-06T02:10:04.447Z,28.00
2023-03-06T02:12:34.069Z,31.77
2023-03-06T02:15:02.323Z,28.93
2023-03-06T02:17:29.286Z,27.27
2023-03-06T02:19:59.084Z,30.63
2023-03-06T02:22:30.005Z,29.07
2023-03-06T02:25:01.743Z,32.33
2023-03-06T02:27:28.491Z,27.27
2023-03-06T02:29:56.064Z,30.47
2023-03-06T02:32:22.679Z,33.00
2023-03-06T02:34:55.397Z,31.17
2023-03-06T02:37:23.232Z,29.37
2023-03-06T02:39:53.209Z,30.07
2023-03-06T02:42:22.250Z,27.30
2023-03-06T02:44:49.373Z,33.27
2023-03-06T02:47:16.042Z,34.30
2023-03-06T02:49:42.714Z,30.93
2023-03-06T02:52:09.539Z,32.43
2023-03-06T02:54:38.253Z,37.97
2023-03-06T02:57:06.674Z,31.73
2023-03-06T02:59:33.993Z,33.93
2023-03-06T03:02:01.721Z,34.13
2023-03-06T03:04:28.497Z,30.90
2023-03-06T03:06:55.799Z,31.10
2023-03-06T03:09:23.942Z,31.63
2023-03-06T03:11:50.651Z,33.37
2023-03-06T03:14:17.831Z,31.00
2023-03-06T03:16:46.539Z,36.43
2023-03-06T03:19:13.161Z,34.17
2023-03-06T03:21:40.388Z,33.47
2023-03-06T03:24:07.320Z,35.80
2023-03-06T03:26:34.022Z,33.53
2023-03-06T03:29:10.824Z,37.30
2023-03-06T03:31:37.575Z,33.30
2023-03-06T03:34:04.230Z,35.30
2023-03-06T03:36:34.347Z,39.90
2023-03-06T03:39:02.086Z,35.97
2023-03-06T03:41:29.025Z,40.43
2023-03-06T03:43:56.172Z,37.30
2023-03-06T03:46:24.083Z,42.73
2023-03-06T03:48:52.619Z,38.40
2023-03-06T03:51:19.494Z,45.63
2023-03-06T03:53:50.461Z,41.10
2023-03-06T03:56:20.691Z,38.90
2023-03-06T03:58:59.762Z,40.77
2023-03-06T04:01:31.672Z,41.20
2023-03-06T04:03:59.235Z,40.53
2023-03-06T04:06:26.046Z,39.17
2023-03-06T04:08:52.748Z,41.47
2023-03-06T04:11:19.890Z,48.57
2023-03-06T04:13:46.671Z,37.17
2023-03-06T04:16:13.639Z,40.87
2023-03-06T04:18:40.798Z,42.37
2023-03-06T04:21:07.806Z,43.10
2023-03-06T04:23:34.985Z,45.23
2023-03-06T04:26:02.939Z,43.63
2023-03-06T04:28:29.547Z,42.27
2023-03-06T04:30:57.520Z,40.33
2023-03-06T04:33:24.431Z,41.73
2023-03-06T04:35:51.164Z,44.77
2023-03-06T04:38:23.282Z,42.87
2023-03-06T04:40:50.027Z,45.47
2023-03-06T04:43:17.068Z,45.77
2023-03-06T04:45:43.842Z,41.40
2023-03-06T04:48:12.879Z,42.77
2023-03-06T04:50:39.496Z,47.00
2023-03-06T04:53:06.302Z,49.40
2023-03-06T04:55:32.911Z,49.07
2023-03-06T04:57:59.503Z,51.23
2023-03-06T05:00:30.607Z,47.40
2023-03-06T05:03:00.858Z,46.03
2023-03-06T05:05:27.752Z,45.73
2023-03-06T05:07:54.479Z,50.07
2023-03-06T05:10:21.156Z,44.10
2023-03-06T05:12:47.745Z,46.77
2023-03-06T05:15:14.650Z,42.13
2023-03-06T05:17:41.690Z,49.80
2023-03-06T05:20:09.763Z,44.30
2023-03-06T05:22:36.570Z,46.53
2023-03-06T05:25:05.125Z,43.10
2023-03-06T05:27:31.858Z,44.73
2023-03-06T05:29:58.449Z,45.77
2023-03-06T05:32:25.117Z,46.83
2023-03-06T05:34:51.803Z,46.97
2023-03-06T05:37:18.434Z,42.87
2023-03-06T05:39:45.299Z,43.87
2023-03-06T05:42:11.919Z,51.17
2023-03-06T05:44:38.571Z,46.70
2023-03-06T05:47:05.351Z,47.77
2023-03-06T05:49:32.679Z,41.33
2023-03-06T05:51:59.595Z,42.87
2023-03-06T05:54:28.199Z,47.20
2023-03-06T05:56:54.867Z,41.30
2023-03-06T05:59:21.510Z,42.87
2023-03-06T06:01:48.160Z,51.43
2023-03-06T06:04:15.275Z,49.47
2023-03-06T06:06:41.855Z,48.30
2023-03-06T06:09:08.401Z,45.33
2023-03-06T06:11:35.128Z,50.33
2023-03-06T06:14:01.685Z,45.07
2023-03-06T06:16:28.293Z,45.60
2023-03-06T06:18:54.854Z,48.00
2023-03-06T06:21:21.436Z,47.17
2023-03-06T06:23:48.144Z,48.63
2023-03-06T06:26:15.021Z,49.50
2023-03-06T06:28:41.732Z,48.47
2023-03-06T06:31:12.318Z,50.97
2023-03-06T06:33:39.801Z,47.67
2023-03-06T06:36:15.966Z,47.67
2023-03-06T06:38:42.639Z,48.30
2023-03-06T06:41:35.991Z,50.50
2023-03-06T06:43:58.685Z,48.57
2023-03-06T06:47:09.587Z,53.17
2023-03-06T06:49:13.011Z,50.27
2023-03-06T06:51:40.074Z,49.73
2023-03-06T06:54:07.177Z,50.77
2023-03-06T06:56:33.748Z,49.77
2023-03-06T06:59:15.751Z,48.37
2023-03-06T07:01:42.997Z,46.67
2023-03-06T07:04:11.668Z,51.67
2023-03-06T07:06:38.283Z,50.93
2023-03-06T07:09:05.663Z,48.87
2023-03-06T07:11:32.467Z,46.07
2023-03-06T07:13:59.359Z,51.67
2023-03-06T07:16:25.998Z,51.73
2023-03-06T07:18:52.613Z,47.97
2023-03-06T07:21:19.437Z,52.93
2023-03-06T07:23:46.172Z,51.70
2023-03-06T07:26:12.762Z,49.90
2023-03-06T07:28:51.466Z,50.13
2023-03-06T07:31:24.029Z,47.60
2023-03-06T07:33:51.117Z,53.40
2023-03-06T07:36:18.090Z,51.73
2023-03-06T07:38:44.920Z,48.67
2023-03-06T07:41:13.819Z,53.57
2023-03-06T07:43:41.560Z,51.03
2023-03-06T07:46:08.653Z,49.20
2023-03-06T07:48:35.690Z,47.70
2023-03-06T07:51:04.364Z,48.27
2023-03-06T07:53:31.078Z,48.73
2023-03-06T07:55:57.699Z,47.37
2023-03-06T07:58:24.723Z,46.47
2023-03-06T08:00:51.409Z,45.30
2023-03-06T08:03:18.238Z,43.90
2023-03-06T08:05:44.950Z,48.00
2023-03-06T08:08:11.864Z,47.07
2023-03-06T08:10:38.516Z,44.37
2023-03-06T08:13:05.787Z,41.33
2023-03-06T08:15:32.450Z,49.20
2023-03-06T08:17:59.169Z,42.57
2023-03-06T08:20:26.012Z,43.77
2023-03-06T08:22:52.631Z,44.10
2023-03-06T08:25:19.866Z,44.30
2023-03-06T08:27:47.445Z,40.87
2023-03-06T08:30:14.857Z,39.73
2023-03-06T08:32:42.361Z,36.30
2023-03-06T08:35:09.269Z,42.93
2023-03-06T08:37:35.959Z,36.63
2023-03-06T08:40:04.902Z,41.77
2023-03-06T08:42:32.285Z,36.07
2023-03-06T08:44:59.031Z,36.93
2023-03-06T08:47:25.768Z,39.60
2023-03-06T08:49:52.529Z,42.83
2023-03-06T08:52:19.948Z,33.47
2023-03-06T08:54:47.033Z,39.03
2023-03-06T08:57:13.681Z,34.43
2023-03-06T08:59:42.134Z,35.03
2023-03-06T09:02:12.203Z,33.37
2023-03-06T09:04:38.892Z,34.60
2023-03-06T09:07:05.502Z,34.47
2023-03-06T09:09:32.193Z,34.23
2023-03-06T09:11:58.768Z,38.03
2023-03-06T09:14:25.396Z,34.63
2023-03-06T09:16:52.040Z,37.27
2023-03-06T09:19:18.829Z,35.23
2023-03-06T09:21:45.467Z,36.00
2023-03-06T09:24:12.667Z,31.47
2023-03-06T09:26:46.257Z,33.73
2023-03-06T09:29:16.316Z,31.00
2023-03-06T09:31:43.254Z,32.37
2023-03-06T09:34:09.840Z,34.13
2023-03-06T09:36:49.507Z,35.33
2023-03-06T09:39:22.145Z,30.90
2023-03-06T09:41:49.810Z,31.67
2023-03-06T09:44:18.712Z,31.20
2023-03-06T09:46:54.664Z,29.50
2023-03-06T09:49:21.480Z,28.10
2023-03-06T09:51:55.438Z,31.53
2023-03-06T09:54:26.735Z,29.87
2023-03-06T09:56:53.369Z,34.07
2023-03-06T09:59:21.786Z,31.70
2023-03-06T10:02:00.333Z,29.13
2023-03-06T10:04:31.955Z,26.47
2023-03-06T10:07:01.232Z,32.37
2023-03-06T10:09:30.131Z,28.70
2023-03-06T10:11:59.288Z,28.37
2023-03-06T10:14:48.469Z,29.63
2023-03-06T10:17:20.371Z,31.00
2023-03-06T10:19:49.984Z,27.80
2023-03-06T10:22:25.080Z,27.17
2023-03-06T10:24:58.388Z,25.30
2023-03-06T10:27:38.787Z,25.13
2023-03-06T10:30:21.090Z,24.93
2023-03-06T10:32:58.805Z,26.47
2023-03-06T10:35:31.073Z,27.03
2023-03-06T10:38:05.261Z,25.57
2023-03-06T10:40:38.551Z,24.73
2023-03-06T10:43:11.754Z,24.87
2023-03-06T10:45:52.392Z,27.33
2023-03-06T10:48:21.370Z,23.43
2023-03-06T10:50:48.399Z,24.13
2023-03-06T10:53:21.199Z,23.33
2023-03-06T10:55:52.240Z,26.37
2023-03-06T10:58:19.980Z,23.27
2023-03-06T11:00:46.639Z,24.00
2023-03-06T11:03:15.961Z,21.80
2023-03-06T11:06:01.749Z,27.40
2023-03-06T11:08:29.404Z,23.60
2023-03-06T11:11:00.677Z,20.87
2023-03-06T11:13:28.705Z,23.97
2023-03-06T11:15:57.182Z,21.90
2023-03-06T11:18:28.743Z,24.30
2023-03-06T11:20:55.726Z,23.33
2023-03-06T11:23:22.367Z,24.10
2023-03-06T11:26:04.496Z,22.60
2023-03-06T11:28:40.859Z,21.17
2023-03-06T11:31:13.821Z,24.40
2023-03-06T11:33:40.419Z,20.60
2023-03-06T11:36:23.104Z,22.30
2023-03-06T11:38:50.912Z,21.13
2023-03-06T11:41:36.128Z,24.33
2023-03-06T11:44:02.764Z,22.83
2023-03-06T11:46:38.683Z,21.30
2023-03-06T11:49:12.191Z,22.60
2023-03-06T11:51:41.072Z,21.27
2023-03-06T11:54:10.233Z,25.63
2023-03-06T11:56:55.174Z,21.40
2023-03-06T11:59:40.376Z,24.03
2023-03-06T12:02:27.663Z,22.63
2023-03-06T12:05:03.707Z,22.87
2023-03-06T12:07:33.136Z,23.93
2023-03-06T12:10:09.248Z,20.57
2023-03-06T12:12:49.671Z,19.20
2023-03-06T12:15:28.667Z,20.33
2023-03-06T12:18:03.477Z,19.60
2023-03-06T12:20:49.002Z,21.27
2023-03-06T12:23:21.888Z,20.73
2023-03-06T12:25:55.233Z,19.17
2023-03-06T12:28:24.874Z,20.20
2023-03-06T12:31:10.437Z,21.00
2023-03-06T12:33:49.122Z,16.17
2023-03-06T12:36:34.307Z,15.67
2023-03-06T12:39:09.264Z,15.80
2023-03-06T12:41:43.665Z,17.57
2023-03-06T12:44:17.481Z,16.27
2023-03-06T12:47:03.893Z,16.93
2023-03-06T12:49:33.290Z,18.40
2023-03-06T12:52:00.998Z,17.27
2023-03-06T12:54:29.382Z,17.33
2023-03-06T12:56:57.300Z,17.73
2023-03-06T12:59:42.780Z,19.37
2023-03-06T13:02:09.455Z,17.83
2023-03-06T13:04:48.783Z,17.20
2023-03-06T13:07:30.751Z,17.03
2023-03-06T13:10:03.578Z,16.63
2023-03-06T13:12:36.712Z,15.80
2023-03-06T13:15:23.236Z,17.47
2023-03-06T13:17:49.900Z,17.20
2023-03-06T13:20:16.517Z,16.40
2023-03-06T13:22:47.178Z,19.23
2023-03-06T13:25:16.809Z,17.23
2023-03-06T13:27:46.948Z,18.53
2023-03-06T13:30:32.940Z,16.73
2023-03-06T13:32:59.707Z,18.63
2023-03-06T13:35:32.608Z,20.50
2023-03-06T13:37:59.974Z,23.10
2023-03-06T13:40:27.926Z,23.23
2023-03-06T13:43:00.796Z,17.83
2023-03-06T13:45:30.021Z,17.53
2023-03-06T13:50:46.345Z,21.07
2023-03-06T13:53:16.010Z,20.70
2023-03-06T13:55:48.704Z,19.63
2023-03-06T13:58:34.217Z,18.87
2023-03-06T14:01:19.429Z,20.63
2023-03-06T14:03:55.233Z,21.50
2023-03-06T14:06:34.208Z,20.97
2023-03-06T14:09:05.456Z,19.60
2023-03-06T14:11:32.359Z,17.90
2023-03-06T14:13:59.163Z,19.27
2023-03-06T14:16:29.096Z,15.97
2023-03-06T14:18:58.459Z,17.03
2023-03-06T14:21:27.882Z,18.97
2023-03-06T14:24:04.754Z,18.17
2023-03-06T14:26:43.023Z,20.00
2023-03-06T14:29:23.022Z,17.50
2023-03-06T14:31:50.954Z,20.57
2023-03-06T14:34:17.568Z,18.67
2023-03-06T14:36:51.406Z,18.53
2023-03-06T14:39:37.361Z,17.77
2023-03-06T14:42:19.345Z,20.87
2023-03-06T14:44:46.612Z,17.83
2023-03-06T14:47:22.118Z,15.93
2023-03-06T14:50:08.681Z,19.83
2023-03-06T14:52:35.947Z,23.80
2023-03-06T14:55:02.866Z,19.73
2023-03-06T14:57:29.560Z,20.07
2023-03-06T14:59:58.298Z,22.07
2023-03-06T15:02:27.275Z,22.40
2023-03-06T15:04:56.714Z,21.50
2023-03-06T15:07:25.750Z,22.73
2023-03-06T15:09:53.703Z,18.67
2023-03-06T15:12:20.767Z,23.60
2023-03-06T15:14:57.935Z,20.70
2023-03-06T15:17:27.673Z,21.10
2023-03-06T15:19:55.858Z,20.63
2023-03-06T15:22:25.462Z,21.20
2023-03-06T15:24:52.422Z,20.53
2023-03-06T15:27:20.716Z,23.60
2023-03-06T15:29:47.456Z,22.57
2023-03-06T15:32:16.396Z,21.33
2023-03-06T15:34:43.179Z,18.30
2023-03-06T15:37:20.404Z,21.73
2023-03-06T15:40:01.036Z,21.40
2023-03-06T15:42:28.125Z,19.07
2023-03-06T15:44:56.566Z,18.27
2023-03-06T15:47:23.237Z,19.60
2023-03-06T15:49:52.555Z,19.87
2023-03-06T15:52:22.404Z,19.70
2023-03-06T15:54:49.044Z,19.27
2023-03-06T15:57:20.715Z,20.23
2023-03-06T15:59:47.411Z,22.33
2023-03-06T16:02:15.925Z,23.07
2023-03-06T16:04:43.230Z,22.47
2023-03-06T16:07:10.398Z,21.90
2023-03-06T16:09:37.199Z,20.77
2023-03-06T16:12:04.441Z,20.67
2023-03-06T16:14:31.304Z,21.67
2023-03-06T16:16:59.609Z,21.40
2023-03-06T16:19:27.567Z,41.73
2023-03-06T16:21:54.962Z,28.13
2023-03-06T16:24:21.980Z,22.20
2023-03-06T16:26:50.983Z,24.47
2023-03-06T16:29:18.625Z,24.07
2023-03-06T16:31:45.855Z,29.63
2023-03-06T16:34:12.941Z,96.30
2023-03-06T16:36:39.829Z,28.83
2023-03-06T16:39:06.584Z,30.07
2023-03-06T16:41:34.274Z,29.20
2023-03-06T16:44:01.104Z,19.83
2023-03-06T16:46:27.938Z,19.20
2023-03-06T16:49:04.526Z,20.57
2023-03-06T16:51:31.902Z,21.27
2023-03-06T16:54:02.240Z,19.60
2023-03-06T16:56:29.003Z,22.60
2023-03-06T16:58:55.554Z,23.73
2023-03-06T17:01:22.258Z,22.33
2023-03-06T17:03:49.073Z,20.27
2023-03-06T17:06:20.696Z,24.10
2023-03-06T17:08:48.126Z,19.40
2023-03-06T17:11:15.190Z,20.40
2023-03-06T17:13:42.079Z,20.20
2023-03-06T17:16:11.643Z,19.27
2023-03-06T17:18:38.450Z,22.23
2023-03-06T17:21:05.262Z,23.63
2023-03-06T17:23:31.917Z,21.57
2023-03-06T17:26:07.004Z,20.73
2023-03-06T17:28:34.032Z,20.00
2023-03-06T17:31:01.823Z,16.30
2023-03-06T17:33:28.812Z,40.40
2023-03-06T17:35:59.564Z,20.40
2023-03-06T17:38:29.515Z,21.33
2023-03-06T17:41:03.894Z,20.73
2023-03-06T17:43:31.152Z,21.00
2023-03-06T17:46:02.016Z,21.53
2023-03-06T17:48:28.645Z,36.43
2023-03-06T17:50:55.804Z,35.50
2023-03-06T17:53:23.245Z,21.23
2023-03-06T17:55:50.086Z,21.53
2023-03-06T17:58:17.228Z,22.50
2023-03-06T18:00:43.894Z,24.93
2023-03-06T18:03:10.900Z,21.87
2023-03-06T18:05:37.888Z,22.73
2023-03-06T18:08:04.983Z,20.37
2023-03-06T18:10:31.570Z,23.43
2023-03-06T18:12:58.259Z,22.17
2023-03-06T18:15:24.912Z,22.33
2023-03-06T18:17:51.653Z,20.57
2023-03-06T18:20:18.315Z,22.67
2023-03-06T18:22:44.920Z,24.07
2023-03-06T18:25:11.562Z,26.83
2023-03-06T18:27:38.167Z,20.67
2023-03-06T18:30:05.170Z,21.47
2023-03-06T18:32:31.973Z,21.77
2023-03-06T18:34:58.751Z,27.00
2023-03-06T18:37:25.460Z,22.63
2023-03-06T18:39:52.237Z,20.47
2023-03-06T18:42:18.978Z,25.60
2023-03-06T18:44:47.877Z,29.43
2023-03-06T18:47:16.623Z,24.93
2023-03-06T18:49:45.254Z,24.27
2023-03-06T18:52:12.710Z,21.03
2023-03-06T18:54:39.440Z,20.33
2023-03-06T18:57:06.234Z,22.40
2023-03-06T18:59:33.162Z,25.53
2023-03-06T19:01:59.886Z,23.70
2023-03-06T19:04:27.171Z,21.87
2023-03-06T19:06:54.839Z,24.00
2023-03-06T19:09:21.763Z,21.30
2023-03-06T19:11:48.692Z,26.70
2023-03-06T19:14:17.120Z,22.30
2023-03-06T19:16:43.929Z,24.17
2023-03-06T19:19:10.739Z,26.80
2023-03-06T19:21:37.440Z,22.73
2023-03-06T19:24:04.148Z,24.53
2023-03-06T19:26:31.396Z,23.20
2023-03-06T19:28:58.304Z,26.67
2023-03-06T19:31:26.662Z,22.83
2023-03-06T19:33:54.301Z,27.77
2023-03-06T19:36:26.578Z,24.97
2023-03-06T19:39:00.413Z,23.50
2023-03-06T19:41:27.493Z,25.27
2023-03-06T19:43:55.894Z,21.73
2023-03-06T19:46:23.817Z,23.10
2023-03-06T19:48:54.829Z,21.93
2023-03-06T19:51:22.186Z,25.43
2023-03-06T19:53:48.818Z,23.97
2023-03-06T19:56:19.897Z,23.13
2023-03-06T19:58:47.030Z,23.93
2023-03-06T20:01:14.906Z,24.03
2023-03-06T20:03:41.697Z,24.50
2023-03-06T20:06:12.961Z,22.67
2023-03-06T20:08:39.824Z,24.17
2023-03-06T20:11:06.564Z,26.10
2023-03-06T20:13:33.315Z,25.47
2023-03-06T20:16:02.484Z,24.47
2023-03-06T20:18:29.604Z,24.33
2023-03-06T20:21:03.393Z,27.07
2023-03-06T20:23:30.297Z,27.53
2023-03-06T20:25:56.994Z,24.37
2023-03-06T20:28:23.677Z,24.57
2023-03-06T20:30:50.390Z,23.10
2023-03-06T20:33:17.073Z,28.83
2023-03-06T20:35:44.189Z,30.03
2023-03-06T20:38:11.080Z,27.03
2023-03-06T20:40:38.972Z,27.13
2023-03-06T20:43:06.225Z,28.07
2023-03-06T20:45:33.413Z,23.73
2023-03-06T20:48:00.544Z,28.00
2023-03-06T20:50:27.758Z,25.00
2023-03-06T20:52:55.370Z,30.10
2023-03-06T20:55:22.853Z,27.27
2023-03-06T20:57:50.348Z,27.37
2023-03-06T21:00:17.683Z,30.87
2023-03-06T21:02:44.419Z,28.80
2023-03-06T21:05:11.124Z,27.77
2023-03-06T21:07:37.911Z,26.47
2023-03-06T21:10:04.857Z,27.43
2023-03-06T21:12:31.637Z,26.70
2023-03-06T21:14:59.193Z,27.57
2023-03-06T21:17:25.905Z,28.87
2023-03-06T21:19:52.897Z,25.80
2023-03-06T21:22:19.756Z,26.43
2023-03-06T21:24:47.193Z,30.00
2023-03-06T21:27:14.022Z,24.83
2023-03-06T21:29:40.882Z,26.83
2023-03-06T21:32:07.599Z,23.03
2023-03-06T21:34:34.719Z,25.67
2023-03-06T21:37:01.394Z,24.73
2023-03-06T21:39:28.026Z,27.37
2023-03-06T21:41:54.677Z,25.87
2023-03-06T21:44:21.543Z,23.60
2023-03-06T21:46:49.415Z,25.97
2023-03-06T21:49:16.176Z,26.60
2023-03-06T21:51:43.303Z,25.30
2023-03-06T21:54:10.794Z,25.60
2023-03-06T21:56:37.748Z,25.20
2023-03-06T21:59:04.456Z,25.53
2023-03-06T22:01:31.147Z,21.60
2023-03-06T22:03:58.450Z,25.80
2023-03-06T22:06:26.380Z,24.40
2023-03-06T22:08:54.421Z,23.67
2023-03-06T22:11:22.276Z,20.50
2023-03-06T22:13:49.270Z,25.03
2023-03-06T22:16:16.814Z,24.50
2023-03-06T22:18:47.129Z,19.97
2023-03-06T22:21:14.911Z,24.23
2023-03-06T22:23:41.586Z,19.33
2023-03-06T22:26:10.132Z,23.80
2023-03-06T22:28:36.825Z,22.57
2023-03-06T22:31:04.693Z,23.77
2023-03-06T22:33:31.297Z,21.67
2023-03-06T22:36:06.424Z,20.03
2023-03-06T22:38:37.402Z,19.57
2023-03-06T22:41:04.978Z,19.13
2023-03-06T22:43:32.052Z,17.30
2023-03-06T22:46:02.574Z,20.00
2023-03-06T22:48:29.862Z,17.33
2023-03-06T22:50:56.590Z,18.70
2023-03-06T22:53:23.186Z,19.97
2023-03-06T22:55:49.886Z,14.87
2023-03-06T22:58:16.596Z,16.97
2023-03-06T23:00:43.238Z,22.30
2023-03-06T23:03:09.845Z,18.83
2023-03-06T23:05:40.140Z,18.43
2023-03-06T23:08:06.857Z,18.57
2023-03-06T23:10:37.025Z,16.13
2023-03-06T23:13:22.330Z,16.20
2023-03-06T23:16:08.215Z,18.03
2023-03-06T23:18:54.044Z,18.13
2023-03-06T23:21:39.337Z,14.53
2023-03-06T23:24:25.330Z,17.23
2023-03-06T23:26:52.071Z,17.40
2023-03-06T23:29:18.720Z,17.73
2023-03-06T23:31:45.394Z,16.27
2023-03-06T23:34:12.087Z,14.27
2023-03-06T23:36:38.864Z,15.00
2023-03-06T23:39:05.510Z,15.57
2023-03-06T23:41:32.277Z,15.43
2023-03-06T23:43:59.013Z,15.40
2023-03-06T23:46:25.767Z,16.23
2023-03-06T23:48:52.635Z,16.07
2023-03-06T23:51:20.455Z,16.57
2023-03-06T23:53:47.756Z,13.37
2023-03-06T23:56:14.535Z,13.70
2023-03-06T23:58:41.258Z,13.63
